Time;durP1;ratioP1;P1;durP2;ratioP2;P2;SDS_P1;SDS_P2;PMS_P1;PMS_P2;Temp;Humidity;BMP_temperature;BMP_pressure;BME280_temperature;BME280_humidity;BME280_pressure;Samples;Min_cycle;Max_cycle;Signal;HPM_P1;HPM_P2
2023/01/27 00:00:05;;;;;;;9.30;7.43;;;-0.20;99.90;;;;;;7416049;19;20331;-84
2023/01/27 00:02:38;;;;;;;13.60;8.05;;;-0.20;99.90;;;;;;7412849;19;20628;-85
2023/01/27 00:05:04;;;;;;;7.68;6.03;;;-0.30;99.90;;;;;;7413561;19;20365;-84
2023/01/27 00:07:30;;;;;;;9.30;6.78;;;-0.30;99.90;;;;;;7414179;19;20325;-83
2023/01/27 00:09:55;;;;;;;10.53;7.10;;;-0.30;99.90;;;;;;7413986;19;20297;-88
2023/01/27 00:15:07;;;;;;;10.18;6.18;;;-0.30;99.90;;;;;;7313754;19;2004643;-86
2023/01/27 00:17:33;;;;;;;7.72;6.28;;;-0.10;99.90;;;;;;7414486;19;20328;-87
2023/01/27 00:19:59;;;;;;;10.90;7.37;;;0.00;99.90;;;;;;7415015;19;20308;-85
2023/01/27 00:25:08;;;;;;;8.68;6.68;;;-0.30;99.90;;;;;;7312755;19;2004062;-87
2023/01/27 00:27:34;;;;;;;6.65;5.88;;;-0.20;99.90;;;;;;7415414;19;20327;-86
2023/01/27 00:29:59;;;;;;;10.67;7.37;;;-0.20;99.90;;;;;;7414247;19;20332;-83
2023/01/27 00:35:10;;;;;;;7.40;5.63;;;-0.20;99.90;;;;;;7312645;19;2004062;-87
2023/01/27 00:37:35;;;;;;;10.85;7.78;;;-0.20;99.90;;;;;;7414908;19;20323;-86
2023/01/27 00:40:05;;;;;;;9.70;6.30;;;-0.20;99.90;;;;;;7415004;19;20320;-90
2023/01/27 00:42:31;;;;;;;7.60;6.00;;;-0.20;99.90;;;;;;7415493;19;20360;-85
2023/01/27 00:47:41;;;;;;;11.88;7.88;;;-0.20;99.90;;;;;;7313064;19;2004378;-86
2023/01/27 00:50:07;;;;;;;7.93;6.30;;;-0.10;99.90;;;;;;7415825;19;20340;-88
2023/01/27 00:52:34;;;;;;;11.55;7.97;;;-0.10;99.90;;;;;;7414181;19;20357;-86
2023/01/27 00:55:00;;;;;;;11.57;8.13;;;-0.10;99.90;;;;;;7417039;19;20743;-85
2023/01/27 00:57:25;;;;;;;10.73;7.30;;;-0.10;99.90;;;;;;7415627;19;20310;-87
2023/01/27 00:59:51;;;;;;;11.40;8.38;;;-0.10;99.90;;;;;;7414331;19;20329;-87
2023/01/27 01:02:17;;;;;;;13.90;8.87;;;-0.10;99.90;;;;;;7413774;19;20313;-86
2023/01/27 01:04:42;;;;;;;10.82;7.60;;;-0.20;99.90;;;;;;7414984;19;20360;-87
2023/01/27 01:07:08;;;;;;;10.07;7.10;;;-0.20;99.90;;;;;;7414849;19;20316;-87
2023/01/27 01:09:34;;;;;;;9.83;6.67;;;-0.30;99.90;;;;;;7413448;19;20331;-88
2023/01/27 01:11:59;;;;;;;9.27;6.65;;;-0.40;99.90;;;;;;7413506;19;20324;-85
2023/01/27 01:14:25;;;;;;;8.37;6.60;;;-0.40;99.90;;;;;;7414712;19;20332;-88
2023/01/27 01:16:50;;;;;;;8.70;6.65;;;-0.30;99.90;;;;;;7413009;19;20324;-85
2023/01/27 01:19:16;;;;;;;7.60;5.83;;;-0.40;99.90;;;;;;7413870;19;20338;-85
2023/01/27 01:21:41;;;;;;;9.27;6.78;;;-0.30;99.90;;;;;;7413471;19;20336;-86
2023/01/27 01:24:07;;;;;;;9.13;6.83;;;-0.30;99.90;;;;;;7413614;19;20339;-85
2023/01/27 01:26:34;;;;;;;9.88;7.20;;;-0.30;99.90;;;;;;7414132;19;20341;-88
2023/01/27 01:28:59;;;;;;;10.30;7.10;;;-0.30;99.90;;;;;;7413582;19;20347;-86
2023/01/27 01:31:26;;;;;;;8.30;6.50;;;-0.30;99.90;;;;;;7414052;19;20341;-85
2023/01/27 01:33:51;;;;;;;8.37;6.07;;;-0.40;99.90;;;;;;7410568;19;20293;-86
2023/01/27 01:36:19;;;;;;;6.60;5.35;;;-0.40;99.90;;;;;;7413050;19;20336;-87
2023/01/27 01:38:45;;;;;;;8.15;5.82;;;-0.30;99.90;;;;;;7412618;19;20335;-86
2023/01/27 01:41:15;;;;;;;7.50;5.50;;;-0.30;99.90;;;;;;7413475;19;20353;-86
2023/01/27 01:43:41;;;;;;;7.72;5.80;;;-0.20;99.90;;;;;;7413749;19;20340;-86
2023/01/27 01:46:08;;;;;;;6.53;5.43;;;-0.30;99.90;;;;;;7413743;19;20296;-85
2023/01/27 01:48:51;;;;;;;7.38;5.38;;;-0.40;99.90;;;;;;7413736;19;20392;-87
2023/01/27 01:51:30;;;;;;;6.45;4.60;;;-0.30;99.90;;;;;;7411561;19;20927;-87
2023/01/27 01:54:08;;;;;;;4.93;4.32;;;-0.30;99.90;;;;;;7411875;19;20317;-85
2023/01/27 01:56:40;;;;;;;5.28;4.35;;;-0.20;99.90;;;;;;7309329;19;2004747;-85
2023/01/27 01:59:19;;;;;;;5.97;4.60;;;-0.30;99.90;;;;;;7411333;19;20305;-89
2023/01/27 02:01:45;;;;;;;4.70;3.92;;;-0.20;99.90;;;;;;7409810;19;20367;-85
2023/01/27 02:04:13;;;;;;;4.50;4.10;;;-0.10;99.90;;;;;;7413466;19;20317;-88
2023/01/27 02:06:53;;;;;;;5.32;4.40;;;-0.10;99.90;;;;;;7414092;19;20352;-85
2023/01/27 02:09:20;;;;;;;5.85;4.53;;;0.00;99.90;;;;;;7415320;19;20292;-87
2023/01/27 02:11:45;;;;;;;5.32;4.47;;;0.00;99.90;;;;;;7420223;19;20348;-87
2023/01/27 02:14:12;;;;;;;5.63;4.30;;;-0.10;99.90;;;;;;7419547;19;20403;-87
2023/01/27 02:16:37;;;;;;;5.95;4.47;;;0.00;99.90;;;;;;7419947;19;20348;-82
2023/01/27 02:19:03;;;;;;;6.87;4.77;;;0.20;99.90;;;;;;7420055;19;20327;-85
2023/01/27 02:21:28;;;;;;;4.97;4.40;;;0.00;99.90;;;;;;7415285;19;20356;-84
2023/01/27 02:23:58;;;;;;;6.13;5.37;;;-0.10;99.90;;;;;;7420851;19;20321;-86
2023/01/27 02:26:28;;;;;;;5.82;5.05;;;-0.20;99.90;;;;;;7418778;19;20295;-88
2023/01/27 02:28:58;;;;;;;5.10;4.60;;;-0.10;99.90;;;;;;7419387;19;20333;-87
2023/01/27 02:31:25;;;;;;;5.03;4.50;;;-0.10;99.90;;;;;;7414867;19;20380;-83
2023/01/27 02:33:51;;;;;;;7.47;5.43;;;0.00;99.90;;;;;;7418776;19;20329;-86
2023/01/27 02:36:16;;;;;;;6.45;5.28;;;0.10;99.90;;;;;;7419943;19;20336;-84
2023/01/27 02:38:46;;;;;;;5.68;4.78;;;0.10;99.90;;;;;;7418272;19;20345;-87
2023/01/27 02:41:17;;;;;;;7.20;5.70;;;0.10;99.90;;;;;;7418278;19;20329;-85
2023/01/27 02:43:43;;;;;;;7.78;6.03;;;0.10;99.90;;;;;;7418950;19;20356;-86
2023/01/27 02:46:08;;;;;;;6.10;5.33;;;0.00;99.90;;;;;;7418983;19;20341;-84
2023/01/27 02:48:34;;;;;;;8.23;6.30;;;-0.10;99.90;;;;;;7418455;19;20313;-87
2023/01/27 02:51:00;;;;;;;7.57;5.80;;;0.00;99.90;;;;;;7418291;19;20325;-84
2023/01/27 02:53:27;;;;;;;6.18;5.18;;;0.00;99.90;;;;;;7419788;19;20385;-87
2023/01/27 02:55:54;;;;;;;7.15;5.38;;;0.00;99.90;;;;;;7419244;19;20309;-86
2023/01/27 02:58:21;;;;;;;7.07;5.87;;;0.10;99.90;;;;;;7418542;19;20325;-81
2023/01/27 03:00:50;;;;;;;7.45;5.75;;;0.00;99.90;;;;;;7415432;19;20688;-88
2023/01/27 03:03:16;;;;;;;8.43;6.55;;;0.00;99.90;;;;;;7416700;19;20333;-79
2023/01/27 03:05:41;;;;;;;8.97;7.43;;;0.00;99.90;;;;;;7418567;19;20368;-87
2023/01/27 03:08:07;;;;;;;10.25;7.30;;;0.00;99.90;;;;;;7418232;19;20341;-85
2023/01/27 03:10:34;;;;;;;9.43;7.25;;;-0.10;99.90;;;;;;7412566;19;20313;-86
2023/01/27 03:12:59;;;;;;;10.02;7.57;;;-0.20;99.90;;;;;;7415392;19;20332;-89
2023/01/27 03:18:15;;;;;;;9.85;7.55;;;-0.20;99.90;;;;;;7315096;19;2004009;-86
2023/01/27 03:20:45;;;;;;;11.55;8.50;;;-0.10;99.90;;;;;;7419074;19;20333;-87
2023/01/27 03:23:12;;;;;;;12.73;8.80;;;-0.20;99.90;;;;;;7417740;19;20349;-85
2023/01/27 03:25:44;;;;;;;13.52;9.35;;;-0.10;99.90;;;;;;7419874;19;20337;-87
2023/01/27 03:28:10;;;;;;;11.02;8.23;;;-0.30;99.90;;;;;;7417388;19;20332;-84
2023/01/27 03:31:02;;;;;;;11.77;9.00;;;-0.20;99.90;;;;;;7418918;19;20345;-87
2023/01/27 03:33:41;;;;;;;11.38;7.70;;;-0.20;99.90;;;;;;7314480;19;2004336;-87
2023/01/27 03:47:20;;;;;;;11.80;8.63;;;-0.10;99.90;;;;;;7418293;19;20694;-87
2023/01/27 03:49:46;;;;;;;11.05;8.27;;;-0.10;99.90;;;;;;7415819;19;20372;-87
2023/01/27 03:52:11;;;;;;;12.07;8.90;;;0.00;99.90;;;;;;7415829;19;20305;-87
2023/01/27 03:54:37;;;;;;;13.52;9.00;;;-0.10;99.90;;;;;;7416679;19;20347;-86
2023/01/27 03:57:04;;;;;;;13.80;8.80;;;-0.10;99.90;;;;;;7417132;19;20430;-85
2023/01/27 03:59:31;;;;;;;11.20;8.25;;;-0.10;99.90;;;;;;7415616;19;20309;-86
2023/01/27 04:07:26;;;;;;;12.27;8.48;;;-0.10;99.90;;;;;;7416119;19;20374;-84
2023/01/27 04:09:51;;;;;;;14.30;10.10;;;-0.10;99.90;;;;;;7416088;19;20336;-85
2023/01/27 04:12:17;;;;;;;11.67;9.50;;;0.10;99.90;;;;;;7415453;19;20407;-84
2023/01/27 04:14:43;;;;;;;10.75;8.18;;;0.00;99.90;;;;;;7417010;19;20368;-86
2023/01/27 04:17:17;;;;;;;12.27;8.67;;;-0.10;99.90;;;;;;7417143;19;20352;-85
2023/01/27 04:19:43;;;;;;;10.95;8.77;;;0.00;99.90;;;;;;7417862;19;20348;-87
2023/01/27 04:22:10;;;;;;;14.98;10.45;;;0.10;99.90;;;;;;7415385;19;20328;-81
2023/01/27 04:24:36;;;;;;;17.73;12.27;;;0.00;99.90;;;;;;7414476;19;20325;-86
2023/01/27 04:27:04;;;;;;;13.98;10.68;;;0.00;99.90;;;;;;7416067;19;20322;-85
2023/01/27 04:29:34;;;;;;;13.52;10.07;;;-0.10;99.90;;;;;;7414897;19;20300;-85
2023/01/27 04:32:00;;;;;;;13.30;9.55;;;0.00;99.90;;;;;;7412743;19;20337;-86
2023/01/27 04:34:26;;;;;;;16.17;11.33;;;0.00;99.90;;;;;;7418262;19;20340;-86
2023/01/27 04:36:52;;;;;;;14.77;10.70;;;0.00;99.90;;;;;;7416007;19;20749;-85
2023/01/27 04:39:19;;;;;;;14.77;10.45;;;-0.10;99.90;;;;;;7407727;19;20371;-83
2023/01/27 04:41:44;;;;;;;13.27;9.75;;;-0.10;99.90;;;;;;7391797;19;20425;-83
2023/01/27 04:44:11;;;;;;;16.03;10.50;;;-0.10;99.90;;;;;;7400810;19;20328;-88
2023/01/27 04:46:37;;;;;;;13.15;9.75;;;-0.10;99.90;;;;;;7399448;19;20337;-82
2023/01/27 04:49:03;;;;;;;14.18;9.38;;;-0.20;99.90;;;;;;7397163;19;20718;-80
2023/01/27 04:51:30;;;;;;;16.23;10.88;;;-0.10;99.90;;;;;;7400003;19;20403;-82
2023/01/27 04:53:55;;;;;;;13.57;10.00;;;-0.10;99.90;;;;;;7389837;19;20392;-79
2023/01/27 04:56:51;;;;;;;14.53;9.70;;;-0.20;99.90;;;;;;7386472;19;20337;-80
2023/01/27 04:59:16;;;;;;;13.27;9.07;;;-0.10;99.90;;;;;;7266357;19;2004410;-83
2023/01/27 05:01:50;;;;;;;14.90;9.90;;;-0.10;99.90;;;;;;7383159;19;22532;-80
2023/01/27 05:04:16;;;;;;;16.13;10.52;;;-0.10;99.90;;;;;;7337801;19;20325;-79
2023/01/27 05:06:42;;;;;;;17.87;11.63;;;-0.10;99.90;;;;;;7392602;19;20356;-86
2023/01/27 05:09:14;;;;;;;13.63;10.05;;;-0.10;99.90;;;;;;7394218;19;20324;-83
2023/01/27 05:11:40;;;;;;;12.85;9.50;;;-0.20;99.90;;;;;;7345468;19;20361;-82
2023/01/27 05:14:05;;;;;;;14.82;10.63;;;-0.10;99.90;;;;;;7384621;19;20320;-86
2023/01/27 05:16:31;;;;;;;16.50;11.20;;;-0.10;99.90;;;;;;7383532;19;20360;-86
2023/01/27 05:18:57;;;;;;;14.65;9.95;;;-0.20;99.90;;;;;;7388282;19;20891;-80
2023/01/27 05:21:24;;;;;;;13.43;9.73;;;-0.20;99.90;;;;;;7384900;19;20309;-82
2023/01/27 05:23:50;;;;;;;14.05;9.80;;;-0.20;99.90;;;;;;7379998;19;20309;-82
2023/01/27 05:26:18;;;;;;;13.15;9.73;;;-0.20;99.90;;;;;;7381026;19;20369;-83
2023/01/27 05:28:45;;;;;;;15.33;10.37;;;-0.10;99.90;;;;;;7381743;19;20869;-79
2023/01/27 05:31:17;;;;;;;14.82;10.80;;;-0.10;99.90;;;;;;7383375;19;20866;-82
2023/01/27 05:33:44;;;;;;;15.10;10.57;;;0.00;99.90;;;;;;7381339;19;21417;-82
2023/01/27 05:36:13;;;;;;;17.33;10.50;;;0.00;99.90;;;;;;7379300;19;20333;-81
2023/01/27 05:38:38;;;;;;;13.63;9.40;;;-0.10;99.90;;;;;;7384027;19;20361;-80
2023/01/27 05:41:05;;;;;;;12.95;9.93;;;0.00;99.90;;;;;;7383348;19;20317;-80
2023/01/27 05:43:33;;;;;;;13.13;10.45;;;0.00;99.90;;;;;;7379956;19;20423;-81
2023/01/27 05:46:04;;;;;;;14.13;9.77;;;0.00;99.90;;;;;;7394931;19;20312;-82
2023/01/27 05:48:30;;;;;;;14.82;9.60;;;0.10;99.90;;;;;;7392850;19;20347;-82
2023/01/27 05:50:56;;;;;;;12.30;9.00;;;0.10;99.90;;;;;;7398377;19;20317;-86
2023/01/27 05:53:22;;;;;;;12.15;8.90;;;0.20;99.90;;;;;;7392610;19;20370;-87
2023/01/27 05:55:48;;;;;;;12.13;8.52;;;0.20;99.90;;;;;;7392820;19;20332;-81
2023/01/27 05:58:14;;;;;;;10.95;8.55;;;0.20;99.90;;;;;;7389279;19;20873;-82
2023/01/27 06:00:40;;;;;;;17.40;10.47;;;0.20;99.90;;;;;;7390769;19;20333;-85
2023/01/27 06:03:05;;;;;;;14.68;9.70;;;0.20;99.90;;;;;;7388568;19;20305;-83
2023/01/27 06:05:31;;;;;;;13.43;10.07;;;0.20;99.90;;;;;;7390878;19;20646;-84
2023/01/27 06:07:56;;;;;;;14.98;10.32;;;0.20;99.90;;;;;;7390058;19;20313;-86
2023/01/27 06:10:22;;;;;;;16.13;11.77;;;0.10;99.90;;;;;;7389666;19;20321;-80
2023/01/27 06:12:48;;;;;;;16.10;11.30;;;0.00;99.90;;;;;;7389732;19;20441;-81
2023/01/27 06:15:13;;;;;;;14.83;11.10;;;0.00;99.90;;;;;;7390244;19;20643;-82
2023/01/27 06:17:39;;;;;;;18.50;11.48;;;0.00;99.90;;;;;;7386953;19;20696;-81
2023/01/27 06:20:05;;;;;;;16.07;11.40;;;-0.10;99.90;;;;;;7385613;19;20313;-79
2023/01/27 06:22:30;;;;;;;16.33;10.82;;;0.00;99.90;;;;;;7385403;19;20881;-80
2023/01/27 06:24:56;;;;;;;19.88;13.02;;;0.00;99.90;;;;;;7388114;19;20321;-80
2023/01/27 06:27:33;;;;;;;21.73;13.10;;;0.00;99.90;;;;;;7388855;19;20754;-83
2023/01/27 06:29:59;;;;;;;15.80;9.98;;;-0.20;99.90;;;;;;7284155;19;2004226;-85
2023/01/27 06:32:25;;;;;;;15.20;10.13;;;-0.20;99.90;;;;;;7387726;19;20359;-87
2023/01/27 06:34:50;;;;;;;17.25;11.38;;;0.00;99.90;;;;;;7389441;19;20320;-81
2023/01/27 06:37:16;;;;;;;23.33;13.43;;;0.10;99.90;;;;;;7389897;19;20662;-80
2023/01/27 06:39:41;;;;;;;18.83;12.18;;;-0.10;99.90;;;;;;7387305;19;20305;-80
2023/01/27 06:42:08;;;;;;;17.23;11.57;;;-0.10;99.90;;;;;;7387061;19;20342;-81
2023/01/27 06:44:34;;;;;;;19.38;12.02;;;-0.10;99.90;;;;;;7388871;19;20341;-81
2023/01/27 06:46:59;;;;;;;17.23;10.93;;;-0.10;99.90;;;;;;7385446;19;20312;-88
2023/01/27 06:49:28;;;;;;;16.95;11.20;;;0.00;99.90;;;;;;7387401;19;20670;-83
2023/01/27 06:51:54;;;;;;;15.23;11.00;;;-0.10;99.90;;;;;;7384833;19;20305;-80
2023/01/27 06:54:19;;;;;;;18.50;12.37;;;-0.10;99.90;;;;;;7386409;19;20324;-83
2023/01/27 06:56:45;;;;;;;19.02;12.60;;;0.00;99.90;;;;;;7387538;19;20336;-82
2023/01/27 06:59:11;;;;;;;20.63;12.87;;;-0.10;99.90;;;;;;7384768;19;20325;-78
2023/01/27 07:01:37;;;;;;;17.95;11.45;;;-0.20;99.90;;;;;;7391994;19;20374;-82
2023/01/27 07:04:02;;;;;;;19.13;12.82;;;-0.20;99.90;;;;;;7390716;19;20313;-81
2023/01/27 07:06:28;;;;;;;18.23;12.37;;;-0.20;99.90;;;;;;7394540;19;20342;-82
2023/01/27 07:08:53;;;;;;;18.03;11.50;;;-0.10;99.90;;;;;;7392806;19;20687;-79
2023/01/27 07:11:19;;;;;;;17.00;11.13;;;-0.20;99.90;;;;;;7391013;19;20376;-83
2023/01/27 07:13:45;;;;;;;22.35;13.20;;;-0.20;99.90;;;;;;7390456;19;20332;-82
2023/01/27 07:16:10;;;;;;;21.40;13.00;;;-0.10;99.90;;;;;;7390727;19;20317;-86
2023/01/27 07:18:36;;;;;;;19.77;11.45;;;-0.20;99.90;;;;;;7391185;19;20829;-82
2023/01/27 07:21:04;;;;;;;18.80;12.83;;;-0.10;99.90;;;;;;7388813;19;20324;-79
2023/01/27 07:23:30;;;;;;;16.15;11.23;;;-0.10;99.90;;;;;;7389750;19;20315;-80
2023/01/27 07:25:56;;;;;;;17.95;11.73;;;-0.10;99.90;;;;;;7390391;19;20301;-83
2023/01/27 07:28:21;;;;;;;18.30;11.97;;;-0.10;99.90;;;;;;7390554;19;20321;-85
2023/01/27 07:30:47;;;;;;;19.52;13.13;;;-0.10;99.90;;;;;;7388331;19;20334;-84
2023/01/27 07:33:14;;;;;;;17.20;12.13;;;0.00;99.90;;;;;;7390125;19;20719;-81
2023/01/27 07:35:41;;;;;;;17.17;11.48;;;0.00;99.90;;;;;;7390606;19;20896;-80
2023/01/27 07:38:07;;;;;;;18.42;10.90;;;0.00;99.90;;;;;;7389023;19;20308;-81
2023/01/27 07:40:32;;;;;;;24.67;13.75;;;0.10;99.90;;;;;;7389601;19;21135;-80
2023/01/27 07:42:59;;;;;;;23.83;14.30;;;0.00;99.90;;;;;;7392012;19;20653;-79
2023/01/27 07:45:26;;;;;;;24.52;14.48;;;0.00;99.90;;;;;;7393380;19;20311;-81
2023/01/27 07:47:51;;;;;;;19.17;11.88;;;0.00;99.90;;;;;;7391441;19;20309;-79
2023/01/27 07:50:17;;;;;;;23.37;14.43;;;0.10;99.90;;;;;;7392223;19;20332;-83
2023/01/27 07:52:42;;;;;;;18.50;11.80;;;0.00;99.90;;;;;;7397329;19;20356;-83
2023/01/27 07:55:08;;;;;;;19.50;12.10;;;0.00;99.90;;;;;;7405453;19;20328;-85
2023/01/27 07:57:34;;;;;;;21.58;14.10;;;0.00;99.90;;;;;;7396142;19;20313;-83
2023/01/27 07:59:59;;;;;;;19.90;12.23;;;-0.20;99.90;;;;;;7412937;19;20391;-82
2023/01/27 08:02:27;;;;;;;20.13;13.20;;;-0.10;99.90;;;;;;7395305;19;20349;-79
2023/01/27 08:04:52;;;;;;;24.33;14.63;;;-0.10;99.90;;;;;;7389419;19;20406;-81
2023/01/27 08:07:18;;;;;;;18.55;11.68;;;0.00;99.90;;;;;;7385523;19;20408;-79
2023/01/27 08:09:43;;;;;;;19.60;12.17;;;0.00;99.90;;;;;;7388073;19;20361;-79
2023/01/27 08:12:09;;;;;;;16.80;11.75;;;0.00;99.90;;;;;;7395283;19;20391;-82
2023/01/27 08:14:35;;;;;;;20.30;12.33;;;0.10;99.90;;;;;;7397698;19;20331;-84
2023/01/27 08:17:00;;;;;;;22.52;12.80;;;0.10;99.90;;;;;;7389421;19;20363;-84
2023/01/27 08:19:26;;;;;;;17.13;10.47;;;0.20;99.90;;;;;;7391423;19;20344;-89
2023/01/27 08:21:51;;;;;;;22.07;12.73;;;0.20;99.90;;;;;;7387574;19;20332;-82
2023/01/27 08:24:17;;;;;;;16.47;10.47;;;0.30;99.90;;;;;;7388823;19;20321;-82
2023/01/27 08:26:44;;;;;;;13.03;10.07;;;0.20;99.90;;;;;;7387963;19;20354;-79
2023/01/27 08:29:10;;;;;;;18.37;11.50;;;0.20;99.90;;;;;;7385835;19;21139;-83
2023/01/27 08:31:36;;;;;;;17.13;10.67;;;0.20;99.90;;;;;;7383345;19;20332;-80
2023/01/27 08:34:01;;;;;;;18.77;10.83;;;0.20;99.90;;;;;;7383454;19;20317;-79
2023/01/27 08:36:27;;;;;;;17.38;10.85;;;0.30;99.90;;;;;;7385268;19;20404;-79
2023/01/27 08:38:52;;;;;;;12.43;8.90;;;0.30;99.90;;;;;;7381327;19;20733;-81
2023/01/27 08:41:20;;;;;;;13.63;9.10;;;0.40;99.90;;;;;;7383370;19;20321;-79
2023/01/27 08:43:46;;;;;;;16.47;8.57;;;0.40;99.90;;;;;;7380519;19;20344;-82
2023/01/27 08:46:11;;;;;;;16.93;9.80;;;0.40;99.90;;;;;;7383687;19;20339;-79
2023/01/27 08:48:37;;;;;;;15.80;8.50;;;0.50;99.90;;;;;;7383094;19;20340;-82
2023/01/27 08:51:03;;;;;;;16.07;9.47;;;0.40;99.90;;;;;;7382341;19;21016;-80
2023/01/27 08:53:28;;;;;;;14.57;8.45;;;0.40;99.90;;;;;;7382407;19;20420;-78
2023/01/27 08:55:58;;;;;;;12.40;7.47;;;0.50;99.90;;;;;;7383273;19;20388;-79
2023/01/27 08:58:23;;;;;;;12.65;8.18;;;0.60;99.90;;;;;;7383391;19;20320;-77
2023/01/27 09:00:49;;;;;;;15.97;8.77;;;0.70;99.90;;;;;;7385031;19;20425;-80
2023/01/27 09:03:15;;;;;;;14.30;8.73;;;0.60;99.90;;;;;;7384509;19;20340;-81
2023/01/27 09:05:41;;;;;;;12.40;7.03;;;0.60;99.90;;;;;;7385298;19;20344;-82
2023/01/27 09:08:06;;;;;;;12.87;8.10;;;0.70;99.90;;;;;;7384068;19;20319;-82
2023/01/27 09:10:36;;;;;;;12.65;7.68;;;0.60;99.90;;;;;;7384831;19;20352;-84
2023/01/27 09:13:02;;;;;;;12.85;8.13;;;0.60;99.90;;;;;;7383482;19;20675;-79
2023/01/27 09:15:30;;;;;;;10.63;7.13;;;0.70;99.90;;;;;;7386196;19;20404;-83
2023/01/27 09:17:56;;;;;;;8.07;5.97;;;0.70;99.90;;;;;;7387385;19;20343;-80
2023/01/27 09:20:22;;;;;;;11.35;7.10;;;0.80;99.90;;;;;;7394296;19;20312;-82
2023/01/27 09:22:47;;;;;;;9.90;6.70;;;0.80;99.90;;;;;;7391063;19;20352;-81
2023/01/27 09:25:14;;;;;;;9.23;6.43;;;0.90;99.90;;;;;;7393321;19;20333;-82
2023/01/27 09:27:40;;;;;;;9.88;6.32;;;0.90;99.90;;;;;;7393162;19;20345;-81
2023/01/27 09:30:09;;;;;;;9.38;6.70;;;1.00;99.90;;;;;;7393499;19;20345;-78
2023/01/27 09:32:36;;;;;;;10.10;6.72;;;1.00;99.90;;;;;;7390104;19;20865;-81
2023/01/27 09:35:01;;;;;;;10.63;6.63;;;1.10;99.90;;;;;;7393869;19;20312;-81
2023/01/27 09:37:27;;;;;;;10.07;6.27;;;1.10;99.90;;;;;;7396631;19;20369;-84
2023/01/27 09:39:57;;;;;;;9.50;5.85;;;1.20;99.90;;;;;;7394605;19;20320;-81
2023/01/27 09:42:30;;;;;;;9.45;6.15;;;1.30;99.90;;;;;;7387168;19;20320;-80
2023/01/27 09:45:26;;;;;;;12.40;6.90;;;1.20;99.90;;;;;;7391149;19;20328;-85
2023/01/27 09:48:07;;;;;;;8.80;5.78;;;1.20;99.90;;;;;;7291154;19;2004318;-85
2023/01/27 09:50:47;;;;;;;9.38;6.05;;;1.20;99.90;;;;;;7268085;19;2019291;-94
2023/01/27 09:53:13;;;;;;;8.68;5.65;;;1.20;99.90;;;;;;7413690;19;20321;-87
2023/01/27 09:55:56;;;;;;;9.02;6.60;;;1.20;99.90;;;;;;7408361;19;20339;-88
2023/01/27 09:58:49;;;;;;;9.07;6.05;;;1.20;99.90;;;;;;7412212;19;20312;-91
2023/01/27 10:01:36;;;;;;;9.77;5.40;;;1.20;99.90;;;;;;7305698;19;2004847;-87
2023/01/27 10:04:18;;;;;;;8.05;5.10;;;1.30;99.90;;;;;;7306879;19;2004348;-85
2023/01/27 10:07:19;;;;;;;7.60;5.20;;;1.40;99.90;;;;;;7406320;19;20344;-93
2023/01/27 10:09:48;;;;;;;5.22;4.43;;;1.40;99.90;;;;;;7293859;19;2004382;-87
2023/01/27 10:12:26;;;;;;;10.30;5.60;;;1.50;99.90;;;;;;7398993;19;20903;-89
2023/01/27 10:15:03;;;;;;;7.22;5.05;;;1.50;99.90;;;;;;7401855;19;20329;-89
2023/01/27 10:17:30;;;;;;;8.10;5.63;;;1.50;99.90;;;;;;7406064;19;20331;-90
2023/01/27 10:20:07;;;;;;;8.35;5.68;;;1.40;99.90;;;;;;7404609;19;20332;-89
2023/01/27 10:22:53;;;;;;;7.57;5.70;;;1.40;99.90;;;;;;7303722;19;2004246;-93
2023/01/27 10:25:30;;;;;;;8.98;5.57;;;1.40;99.90;;;;;;7408390;19;20321;-91
2023/01/27 10:27:57;;;;;;;8.85;6.07;;;1.50;99.90;;;;;;7412220;19;20386;-91
2023/01/27 10:30:32;;;;;;;8.95;5.80;;;1.20;99.90;;;;;;7405160;19;20316;-91
2023/01/27 10:33:14;;;;;;;9.50;6.50;;;1.30;99.90;;;;;;7408250;19;20309;-94
2023/01/27 10:35:58;;;;;;;8.32;5.60;;;1.30;99.90;;;;;;7303474;19;2019034;-91
2023/01/27 10:38:38;;;;;;;8.07;5.72;;;1.30;99.90;;;;;;7408239;19;20715;-89
2023/01/27 10:41:14;;;;;;;10.30;6.28;;;1.40;99.90;;;;;;7305617;19;2004381;-93
2023/01/27 10:43:58;;;;;;;7.07;5.05;;;1.40;99.90;;;;;;7406929;19;20407;-92
2023/01/27 10:46:51;;;;;;;10.02;7.28;;;1.40;99.90;;;;;;7403954;19;20315;-89
2023/01/27 10:49:23;;;;;;;10.20;6.20;;;1.40;99.90;;;;;;7309926;19;2004418;-85
2023/01/27 10:52:02;;;;;;;9.83;5.87;;;1.20;99.90;;;;;;7412066;19;20443;-87
2023/01/27 10:54:40;;;;;;;9.10;6.07;;;1.30;99.90;;;;;;7414552;19;20357;-92
2023/01/27 10:57:13;;;;;;;8.90;6.15;;;1.40;99.90;;;;;;7308865;19;2004513;-90
2023/01/27 10:59:43;;;;;;;7.28;5.05;;;1.40;99.90;;;;;;7409201;19;20352;-92
2023/01/27 11:02:12;;;;;;;7.32;5.55;;;1.40;99.90;;;;;;7408148;19;20680;-88
2023/01/27 11:04:48;;;;;;;7.72;5.68;;;1.40;99.90;;;;;;7404898;19;20448;-91
2023/01/27 11:07:18;;;;;;;9.30;5.93;;;1.40;99.90;;;;;;7411482;19;20349;-90
2023/01/27 11:09:54;;;;;;;8.65;5.57;;;1.50;99.90;;;;;;7408829;19;20341;-90
2023/01/27 11:12:28;;;;;;;7.83;5.50;;;1.40;99.90;;;;;;7409222;19;20328;-93
2023/01/27 11:14:54;;;;;;;7.55;4.57;;;1.40;99.90;;;;;;7406593;19;20316;-93
2023/01/27 11:17:22;;;;;;;5.63;4.50;;;1.60;99.90;;;;;;7407800;19;20305;-89
2023/01/27 11:19:59;;;;;;;6.90;4.57;;;1.60;99.90;;;;;;7409986;19;20336;-92
2023/01/27 11:23:14;;;;;;;7.07;4.78;;;1.60;99.90;;;;;;7400127;19;20331;-87
2023/01/27 11:25:52;;;;;;;7.57;5.28;;;1.60;99.90;;;;;;7208474;19;2004344;-92
2023/01/27 11:28:40;;;;;;;5.88;4.65;;;1.60;99.90;;;;;;7412287;19;20348;-87
2023/01/27 11:31:31;;;;;;;7.10;4.30;;;1.60;99.90;;;;;;7309515;19;2004244;-87
2023/01/27 11:33:57;;;;;;;4.95;4.45;;;1.70;99.90;;;;;;7411985;19;20316;-89
2023/01/27 11:36:25;;;;;;;5.13;4.47;;;1.80;99.90;;;;;;7410469;19;20315;-91
2023/01/27 11:38:52;;;;;;;7.20;4.70;;;1.90;99.90;;;;;;7408858;19;20316;-88
2023/01/27 11:41:17;;;;;;;6.55;4.88;;;1.90;99.90;;;;;;7408711;19;20313;-92
2023/01/27 11:43:43;;;;;;;7.07;5.30;;;1.90;99.90;;;;;;7404842;19;20323;-92
2023/01/27 11:46:12;;;;;;;6.88;4.93;;;1.80;99.90;;;;;;7410148;19;20308;-90
2023/01/27 11:48:42;;;;;;;6.57;5.07;;;1.80;99.90;;;;;;7407012;19;20352;-91
2023/01/27 11:51:17;;;;;;;7.40;5.35;;;1.80;99.90;;;;;;7411361;19;20301;-92
2023/01/27 11:53:42;;;;;;;9.40;5.47;;;1.80;99.90;;;;;;7411399;19;20340;-87
2023/01/27 11:56:14;;;;;;;7.38;5.80;;;1.90;99.90;;;;;;7414743;19;20333;-87
2023/01/27 11:58:45;;;;;;;9.15;6.07;;;1.80;99.90;;;;;;7417059;19;20367;-92
2023/01/27 12:01:15;;;;;;;8.02;5.32;;;1.80;99.90;;;;;;7410158;19;20317;-90
2023/01/27 12:03:54;;;;;;;10.63;6.40;;;1.80;99.90;;;;;;7408703;19;20714;-92
2023/01/27 12:06:49;;;;;;;8.60;5.43;;;1.80;99.90;;;;;;7410245;19;20308;-90
2023/01/27 12:09:33;;;;;;;7.72;5.90;;;1.80;99.90;;;;;;7302753;19;2018827;-88
2023/01/27 12:12:14;;;;;;;6.45;5.00;;;1.70;99.90;;;;;;7409265;19;20390;-90
2023/01/27 12:14:46;;;;;;;8.95;5.75;;;1.80;99.90;;;;;;7305567;19;2004194;-90
2023/01/27 12:17:12;;;;;;;6.93;5.50;;;1.90;99.90;;;;;;7410035;19;20320;-94
2023/01/27 12:19:40;;;;;;;8.03;6.00;;;1.80;99.90;;;;;;7409529;19;20304;-89
2023/01/27 12:22:13;;;;;;;8.32;5.80;;;1.80;99.90;;;;;;7409592;19;20356;-87
2023/01/27 12:24:41;;;;;;;6.65;5.40;;;1.90;99.90;;;;;;7409164;19;20365;-92
2023/01/27 12:27:06;;;;;;;9.05;5.93;;;2.00;99.90;;;;;;7406140;19;20327;-90
2023/01/27 12:29:46;;;;;;;6.67;5.20;;;2.00;99.90;;;;;;7406185;19;20349;-84
2023/01/27 12:32:23;;;;;;;6.60;4.78;;;2.00;99.90;;;;;;7407073;19;20324;-89
2023/01/27 12:34:56;;;;;;;5.88;5.00;;;2.10;99.90;;;;;;7407264;19;20401;-92
2023/01/27 12:37:35;;;;;;;6.37;4.83;;;2.10;99.90;;;;;;7406498;19;20340;-89
2023/01/27 12:40:06;;;;;;;6.82;5.50;;;2.10;99.90;;;;;;7407290;19;20313;-94
2023/01/27 12:42:42;;;;;;;6.25;4.80;;;2.10;99.90;;;;;;7303634;19;2013743;-79
2023/01/27 12:45:20;;;;;;;4.60;4.18;;;2.00;99.90;;;;;;7406053;19;20320;-94
2023/01/27 12:48:08;;;;;;;6.32;4.93;;;2.00;99.90;;;;;;7407717;19;20332;-89
2023/01/27 12:50:35;;;;;;;6.30;4.70;;;2.00;99.90;;;;;;7307210;19;2004374;-93
2023/01/27 12:53:14;;;;;;;5.88;4.25;;;1.90;99.90;;;;;;7414268;19;20365;-87
2023/01/27 12:56:17;;;;;;;6.95;4.63;;;2.00;99.90;;;;;;7310998;19;2004639;-89
2023/01/27 12:58:56;;;;;;;4.50;4.10;;;2.10;99.90;;;;;;7308977;19;2004286;-88
2023/01/27 13:01:36;;;;;;;6.32;4.95;;;2.20;99.90;;;;;;7412827;19;20373;-85
2023/01/27 13:04:19;;;;;;;5.03;4.03;;;2.20;99.90;;;;;;7308993;19;2004225;-83
2023/01/27 13:06:47;;;;;;;5.82;4.35;;;2.10;99.90;;;;;;7412825;19;20313;-91
2023/01/27 13:09:43;;;;;;;6.00;4.55;;;2.10;99.90;;;;;;7412267;19;20773;-89
2023/01/27 13:12:23;;;;;;;6.13;4.40;;;2.10;99.90;;;;;;7310043;19;2004252;-86
2023/01/27 13:14:51;;;;;;;5.82;4.00;;;2.20;99.90;;;;;;7415999;19;20345;-87
2023/01/27 13:17:35;;;;;;;6.43;4.10;;;2.10;99.90;;;;;;7415738;19;20325;-82
2023/01/27 13:20:16;;;;;;;4.93;4.03;;;2.10;99.90;;;;;;7414963;19;20317;-89
2023/01/27 13:22:47;;;;;;;4.80;4.13;;;2.10;99.90;;;;;;7312472;19;2004352;-87
2023/01/27 13:25:18;;;;;;;5.97;4.10;;;2.10;99.90;;;;;;7414676;19;20309;-90